createdAt,value
2023-05-18T00:00:06.741Z,7.53
2023-05-18T00:02:54.625Z,7.50
2023-05-18T00:05:43.039Z,7.46
2023-05-18T00:08:31.672Z,7.44
2023-05-18T00:11:19.533Z,7.39
2023-05-18T00:14:08.263Z,7.34
2023-05-18T00:16:56.141Z,7.33
2023-05-18T00:19:46.634Z,7.29
2023-05-18T00:22:34.601Z,7.26
2023-05-18T00:25:22.590Z,7.21
2023-05-18T00:28:12.878Z,7.17
2023-05-18T00:31:00.728Z,7.15
2023-05-18T00:33:48.515Z,7.14
2023-05-18T00:36:37.257Z,7.12
2023-05-18T00:39:25.107Z,7.08
2023-05-18T00:42:12.872Z,7.04
2023-05-18T00:45:01.005Z,7.03
2023-05-18T00:47:48.922Z,7.00
2023-05-18T00:50:38.271Z,6.97
2023-05-18T00:53:26.464Z,6.94
2023-05-18T00:56:16.141Z,6.89
2023-05-18T00:59:05.192Z,6.84
2023-05-18T01:01:53.558Z,6.80
2023-05-18T01:04:41.537Z,6.79
2023-05-18T01:07:33.502Z,6.78
2023-05-18T01:10:21.274Z,6.71
2023-05-18T01:13:35.940Z,6.71
2023-05-18T01:16:34.248Z,6.69
2023-05-18T01:19:29.336Z,6.67
2023-05-18T01:22:49.013Z,6.65
2023-05-18T01:25:56.562Z,6.63
2023-05-18T01:28:47.045Z,6.57
2023-05-18T01:31:35.530Z,6.53
2023-05-18T01:34:24.046Z,6.51
2023-05-18T01:37:12.215Z,6.46
2023-05-18T01:40:00.736Z,6.43
2023-05-18T01:43:01.924Z,6.40
2023-05-18T01:45:56.612Z,6.35
2023-05-18T01:48:52.405Z,6.32
2023-05-18T01:51:46.346Z,6.31
2023-05-18T01:54:41.333Z,6.28
2023-05-18T01:57:32.801Z,6.23
2023-05-18T02:00:23.346Z,6.20
2023-05-18T02:03:15.091Z,6.18
2023-05-18T02:06:03.006Z,6.14
2023-05-18T02:08:51.866Z,6.13
2023-05-18T02:11:39.625Z,6.14
2023-05-18T02:14:27.460Z,6.14
2023-05-18T02:17:15.485Z,6.14
2023-05-18T02:20:07.369Z,6.14
2023-05-18T02:22:55.085Z,6.13
2023-05-18T02:25:44.529Z,6.11
2023-05-18T02:28:34.396Z,6.08
2023-05-18T02:31:22.333Z,6.07
2023-05-18T02:34:10.452Z,6.06
2023-05-18T02:36:58.536Z,6.03
2023-05-18T02:39:46.338Z,5.99
2023-05-18T02:42:34.541Z,5.96
2023-05-18T02:45:23.143Z,5.92
2023-05-18T02:48:11.119Z,5.91
2023-05-18T02:50:59.071Z,5.88
2023-05-18T02:53:47.933Z,5.85
2023-05-18T02:56:38.476Z,5.84
2023-05-18T02:59:33.154Z,5.81
2023-05-18T03:02:23.049Z,5.81
2023-05-18T03:05:10.991Z,5.80
2023-05-18T03:07:59.131Z,5.80
2023-05-18T03:10:47.075Z,5.80
2023-05-18T03:13:35.616Z,5.80
2023-05-18T03:16:28.462Z,5.78
2023-05-18T03:19:17.212Z,5.76
2023-05-18T03:22:06.205Z,5.74
2023-05-18T03:24:55.556Z,5.73
2023-05-18T03:27:43.803Z,5.72
2023-05-18T03:30:33.779Z,5.72
2023-05-18T03:33:22.139Z,5.71
2023-05-18T03:36:10.894Z,5.72
2023-05-18T03:38:58.859Z,5.73
2023-05-18T03:41:47.991Z,5.73
2023-05-18T03:44:36.018Z,5.72
2023-05-18T03:47:24.380Z,5.73
2023-05-18T03:50:12.419Z,5.74
2023-05-18T03:53:00.280Z,5.72
2023-05-18T03:55:51.694Z,5.74
2023-05-18T03:58:39.658Z,5.75
2023-05-18T04:01:30.274Z,5.73
2023-05-18T04:04:23.376Z,5.74
2023-05-18T04:07:17.922Z,5.74
2023-05-18T04:10:06.380Z,5.76
2023-05-18T04:12:54.380Z,5.78
2023-05-18T04:15:42.211Z,5.79
2023-05-18T04:18:30.262Z,5.81
2023-05-18T04:21:19.414Z,5.84
2023-05-18T04:24:07.983Z,5.87
2023-05-18T04:26:59.472Z,5.90
2023-05-18T04:29:47.399Z,5.94
2023-05-18T04:32:36.874Z,5.99
2023-05-18T04:35:27.465Z,6.04
2023-05-18T04:38:16.383Z,6.11
2023-05-18T04:41:07.677Z,6.20
2023-05-18T04:43:55.965Z,6.31
2023-05-18T04:46:47.513Z,6.66
2023-05-18T04:49:35.886Z,6.90
2023-05-18T04:52:23.752Z,7.05
2023-05-18T04:55:11.522Z,7.11
2023-05-18T04:58:00.872Z,7.08
2023-05-18T05:00:48.673Z,7.06
2023-05-18T05:03:36.667Z,7.03
2023-05-18T05:06:25.149Z,7.02
2023-05-18T05:09:14.743Z,7.02
2023-05-18T05:12:02.603Z,7.05
2023-05-18T05:14:50.499Z,7.05
2023-05-18T05:17:41.225Z,7.08
2023-05-18T05:20:29.844Z,7.13
2023-05-18T05:23:17.784Z,7.20
2023-05-18T05:26:06.904Z,7.27
2023-05-18T05:28:55.228Z,7.32
2023-05-18T05:31:43.299Z,7.38
2023-05-18T05:34:31.194Z,7.45
2023-05-18T05:37:20.351Z,7.55
2023-05-18T05:40:10.381Z,7.61
2023-05-18T05:43:06.147Z,7.65
2023-05-18T05:45:54.582Z,7.72
2023-05-18T05:48:42.531Z,7.78
2023-05-18T05:51:30.813Z,7.83
2023-05-18T05:54:18.815Z,7.89
2023-05-18T05:57:06.732Z,7.94
2023-05-18T05:59:54.637Z,8.01
2023-05-18T06:02:42.862Z,8.05
2023-05-18T06:05:31.239Z,8.07
2023-05-18T06:08:19.322Z,8.13
2023-05-18T06:11:10.704Z,8.17
2023-05-18T06:13:59.721Z,8.22
2023-05-18T06:16:48.654Z,8.29
2023-05-18T06:19:36.449Z,8.39
2023-05-18T06:22:25.107Z,8.44
2023-05-18T06:25:32.340Z,8.50
2023-05-18T06:28:29.152Z,8.55
2023-05-18T06:31:37.375Z,8.60
2023-05-18T06:34:56.517Z,8.71
2023-05-18T06:37:46.182Z,8.84
2023-05-18T06:40:35.480Z,8.96
2023-05-18T06:43:25.437Z,9.10
2023-05-18T06:46:23.490Z,9.25
2023-05-18T06:49:17.960Z,9.30
2023-05-18T06:52:06.799Z,9.33
2023-05-18T06:54:55.184Z,9.37
2023-05-18T06:57:43.446Z,9.50
2023-05-18T07:00:31.508Z,9.70
2023-05-18T07:03:19.599Z,9.92
2023-05-18T07:06:07.710Z,10.01
2023-05-18T07:08:56.364Z,10.14
2023-05-18T07:11:45.489Z,10.22
2023-05-18T07:14:33.268Z,10.32
2023-05-18T07:17:21.050Z,10.42
2023-05-18T07:20:10.224Z,10.60
2023-05-18T07:22:58.042Z,10.76
2023-05-18T07:25:45.892Z,10.96
2023-05-18T07:28:33.825Z,11.16
2023-05-18T07:31:22.248Z,11.31
2023-05-18T07:34:10.061Z,11.43
2023-05-18T07:36:57.997Z,11.56
2023-05-18T07:39:45.992Z,11.81
2023-05-18T07:42:34.068Z,11.99
2023-05-18T07:45:23.804Z,12.01
2023-05-18T07:48:11.646Z,12.04
2023-05-18T07:50:59.621Z,12.16
2023-05-18T07:53:47.409Z,12.19
2023-05-18T07:56:35.446Z,12.29
2023-05-18T07:59:23.266Z,12.36
2023-05-18T08:02:11.328Z,12.33
2023-05-18T08:04:59.169Z,12.41
2023-05-18T08:07:46.946Z,12.51
2023-05-18T08:10:34.783Z,12.60
2023-05-18T08:13:22.605Z,12.80
2023-05-18T08:16:12.093Z,12.93
2023-05-18T08:19:00.448Z,13.09
2023-05-18T08:21:48.446Z,13.23
2023-05-18T08:24:36.294Z,13.25
2023-05-18T08:27:24.053Z,13.20
2023-05-18T08:30:12.764Z,13.28
2023-05-18T08:33:00.692Z,13.40
2023-05-18T08:35:49.128Z,13.50
2023-05-18T08:38:37.048Z,13.58
2023-05-18T08:41:38.880Z,13.76
2023-05-18T08:44:38.693Z,13.87
2023-05-18T08:47:28.899Z,13.93
2023-05-18T08:50:28.298Z,14.13
2023-05-18T08:53:19.563Z,14.26
2023-05-18T08:56:11.010Z,14.06
2023-05-18T08:58:59.297Z,14.04
2023-05-18T09:01:47.499Z,14.00
2023-05-18T09:04:36.105Z,13.98
2023-05-18T09:07:25.155Z,13.85
2023-05-18T09:10:15.425Z,13.77
2023-05-18T09:13:05.399Z,13.81
2023-05-18T09:15:53.361Z,13.85
2023-05-18T09:18:41.290Z,13.77
2023-05-18T09:21:32.685Z,13.67
2023-05-18T09:24:23.713Z,13.60
2023-05-18T09:27:12.467Z,13.63
2023-05-18T09:30:00.466Z,13.75
2023-05-18T09:32:48.432Z,13.88
2023-05-18T09:35:37.744Z,13.91
2023-05-18T09:38:28.021Z,14.03
2023-05-18T09:41:18.013Z,14.13
2023-05-18T09:44:09.409Z,14.12
2023-05-18T09:46:57.658Z,14.01
2023-05-18T09:52:46.031Z,14.26
2023-05-18T09:55:38.873Z,14.32
2023-05-18T09:58:33.912Z,14.24
2023-05-18T10:01:21.931Z,14.23
2023-05-18T10:04:09.932Z,14.34
2023-05-18T10:06:57.724Z,14.47
2023-05-18T10:09:46.659Z,14.58
2023-05-18T10:12:40.573Z,14.65
2023-05-18T10:15:28.509Z,14.76
2023-05-18T10:18:25.318Z,14.82
2023-05-18T10:21:16.939Z,14.86
2023-05-18T10:24:08.839Z,14.94
2023-05-18T10:27:00.807Z,14.82
2023-05-18T10:29:52.341Z,14.79
2023-05-18T10:32:42.700Z,14.73
2023-05-18T10:35:32.825Z,14.67
2023-05-18T10:38:26.826Z,14.63
2023-05-18T10:41:18.478Z,14.64
2023-05-18T10:44:07.491Z,14.77
2023-05-18T10:46:55.830Z,14.85
2023-05-18T10:49:48.955Z,14.88
2023-05-18T10:52:41.621Z,14.89
2023-05-18T10:55:30.921Z,14.93
2023-05-18T10:58:22.627Z,14.93
2023-05-18T11:01:13.636Z,14.93
2023-05-18T11:04:04.713Z,14.91
2023-05-18T11:06:59.502Z,14.82
2023-05-18T11:09:49.786Z,14.78
2023-05-18T11:12:41.455Z,14.89
2023-05-18T11:15:50.991Z,14.91
2023-05-18T11:18:52.535Z,14.93
2023-05-18T11:21:41.676Z,14.98
2023-05-18T11:24:33.019Z,15.06
2023-05-18T11:27:21.972Z,15.16
2023-05-18T11:30:28.349Z,15.29
2023-05-18T11:33:26.002Z,15.26
2023-05-18T11:36:15.091Z,15.29
2023-05-18T11:39:11.307Z,15.35
2023-05-18T11:42:10.986Z,15.38
2023-05-18T11:45:08.673Z,15.43
2023-05-18T11:48:02.199Z,15.52
2023-05-18T11:50:55.000Z,15.68
2023-05-18T11:53:42.863Z,15.82
2023-05-18T11:56:33.666Z,15.95
2023-05-18T11:59:32.786Z,16.07
2023-05-18T12:02:26.728Z,16.22
2023-05-18T12:05:17.527Z,16.38
2023-05-18T12:08:05.592Z,16.47
2023-05-18T12:10:54.916Z,16.59
2023-05-18T12:13:42.958Z,16.63
2023-05-18T12:16:31.948Z,16.72
2023-05-18T12:19:19.947Z,16.85
2023-05-18T12:22:09.296Z,16.96
2023-05-18T12:24:57.076Z,17.04
2023-05-18T12:27:48.078Z,17.12
2023-05-18T12:30:36.682Z,17.13
2023-05-18T12:33:24.578Z,17.07
2023-05-18T12:36:14.841Z,17.02
2023-05-18T12:39:02.825Z,16.91
2023-05-18T12:41:50.693Z,16.77
2023-05-18T12:44:39.692Z,16.65
2023-05-18T12:47:33.257Z,16.58
2023-05-18T12:50:23.940Z,16.56
2023-05-18T12:53:11.845Z,16.59
2023-05-18T12:56:00.082Z,16.62
2023-05-18T12:58:59.585Z,16.59
2023-05-18T13:01:47.665Z,16.52
2023-05-18T13:04:36.142Z,16.54
2023-05-18T13:07:26.760Z,16.61
2023-05-18T13:10:19.612Z,16.68
2023-05-18T13:13:08.076Z,16.77
2023-05-18T13:15:55.966Z,16.74
2023-05-18T13:18:46.935Z,16.84
2023-05-18T13:21:35.731Z,17.05
2023-05-18T13:24:23.577Z,17.26
2023-05-18T13:27:11.357Z,17.42
2023-05-18T13:29:59.783Z,17.59
2023-05-18T13:32:47.736Z,17.77
2023-05-18T13:35:38.249Z,17.90
2023-05-18T13:38:26.004Z,17.87
2023-05-18T13:41:16.772Z,17.77
2023-05-18T13:44:04.736Z,17.62
2023-05-18T13:46:52.529Z,17.39
2023-05-18T13:49:40.454Z,17.19
2023-05-18T13:52:28.416Z,17.02
2023-05-18T13:55:16.413Z,16.93
2023-05-18T13:58:04.402Z,16.95
2023-05-18T14:00:53.898Z,17.03
2023-05-18T14:03:41.861Z,17.15
2023-05-18T14:06:29.772Z,17.25
2023-05-18T14:09:17.589Z,17.41
2023-05-18T14:12:06.115Z,17.47
2023-05-18T14:14:53.920Z,17.48
2023-05-18T14:17:43.307Z,17.42
2023-05-18T14:20:31.321Z,17.34
2023-05-18T14:23:19.372Z,17.33
2023-05-18T14:26:07.303Z,17.41
2023-05-18T14:28:55.236Z,17.44
2023-05-18T14:31:43.096Z,17.47
2023-05-18T14:34:30.909Z,17.42
2023-05-18T14:37:19.252Z,17.47
2023-05-18T14:40:08.258Z,17.70
2023-05-18T14:42:56.059Z,17.87
2023-05-18T14:45:48.410Z,18.02
2023-05-18T14:48:41.412Z,18.20
2023-05-18T14:51:29.217Z,18.27
2023-05-18T14:54:19.016Z,18.20
2023-05-18T14:57:06.863Z,18.15
2023-05-18T14:59:54.608Z,18.12
2023-05-18T15:02:42.537Z,18.12
2023-05-18T15:05:30.666Z,18.17
2023-05-18T15:08:18.659Z,18.18
2023-05-18T15:11:06.485Z,18.19
2023-05-18T15:13:54.288Z,18.26
2023-05-18T15:16:42.619Z,18.44
2023-05-18T15:19:30.604Z,18.50
2023-05-18T15:22:18.419Z,18.38
2023-05-18T15:25:07.537Z,18.42
2023-05-18T15:27:55.370Z,18.41
2023-05-18T15:30:43.253Z,18.44
2023-05-18T15:33:31.044Z,18.55
2023-05-18T15:36:19.035Z,18.58
2023-05-18T15:39:06.818Z,18.42
2023-05-18T15:41:54.645Z,18.24
2023-05-18T15:44:42.497Z,18.21
2023-05-18T15:47:30.513Z,18.13
2023-05-18T15:50:18.335Z,18.04
2023-05-18T15:53:06.186Z,17.94
2023-05-18T15:55:58.626Z,17.92
2023-05-18T15:58:47.554Z,17.96
2023-05-18T16:01:36.621Z,17.94
2023-05-18T16:04:24.488Z,17.81
2023-05-18T16:07:12.312Z,17.62
2023-05-18T16:10:01.357Z,17.63
2023-05-18T16:12:49.126Z,17.61
2023-05-18T16:15:36.990Z,17.53
2023-05-18T16:18:25.340Z,17.46
2023-05-18T16:21:13.561Z,17.47
2023-05-18T16:24:01.472Z,17.51
2023-05-18T16:26:49.368Z,17.52
2023-05-18T16:29:37.182Z,17.54
2023-05-18T16:32:25.016Z,17.62
2023-05-18T16:35:13.068Z,17.61
2023-05-18T16:38:01.099Z,17.59
2023-05-18T16:40:49.026Z,17.69
2023-05-18T16:43:36.878Z,17.83
2023-05-18T16:46:25.685Z,17.91
2023-05-18T16:49:13.551Z,17.90
2023-05-18T16:52:01.633Z,17.87
2023-05-18T16:54:49.372Z,17.89
2023-05-18T16:57:37.381Z,17.89
2023-05-18T17:00:25.160Z,17.80
2023-05-18T17:03:13.359Z,17.77
2023-05-18T17:06:01.700Z,17.78
2023-05-18T17:08:53.072Z,17.76
2023-05-18T17:11:40.899Z,17.74
2023-05-18T17:14:28.770Z,17.70
2023-05-18T17:17:16.767Z,17.64
2023-05-18T17:20:06.894Z,17.54
2023-05-18T17:22:54.832Z,17.38
2023-05-18T17:25:43.452Z,17.24
2023-05-18T17:28:31.286Z,17.19
2023-05-18T17:31:19.364Z,17.08
2023-05-18T17:34:07.477Z,17.06
2023-05-18T17:36:55.821Z,16.95
2023-05-18T17:39:43.828Z,16.84
2023-05-18T17:42:32.184Z,16.64
2023-05-18T17:45:20.120Z,16.49
2023-05-18T17:48:07.953Z,16.36
2023-05-18T17:50:55.930Z,16.19
2023-05-18T17:53:43.719Z,16.03
2023-05-18T17:56:31.966Z,15.90
2023-05-18T17:59:19.834Z,15.77
2023-05-18T18:02:07.661Z,15.66
2023-05-18T18:04:55.604Z,15.58
2023-05-18T18:07:43.386Z,15.52
2023-05-18T18:10:34.840Z,15.46
2023-05-18T18:13:23.048Z,15.36
2023-05-18T18:16:10.924Z,15.31
2023-05-18T18:18:59.418Z,15.26
2023-05-18T18:21:47.153Z,15.19
2023-05-18T18:24:35.176Z,15.14
2023-05-18T18:27:22.984Z,15.06
2023-05-18T18:30:11.689Z,14.98
2023-05-18T18:32:59.480Z,14.91
2023-05-18T18:35:48.487Z,14.85
2023-05-18T18:38:36.619Z,14.75
2023-05-18T18:41:24.736Z,14.64
2023-05-18T18:44:12.548Z,14.54
2023-05-18T18:47:00.291Z,14.46
2023-05-18T18:49:48.083Z,14.35
2023-05-18T18:52:36.105Z,14.29
2023-05-18T18:55:24.458Z,14.23
2023-05-18T18:58:12.337Z,14.15
2023-05-18T19:01:00.111Z,14.05
2023-05-18T19:03:47.873Z,13.95
2023-05-18T19:06:36.737Z,13.85
2023-05-18T19:09:24.616Z,13.77
2023-05-18T19:12:12.389Z,13.66
2023-05-18T19:15:00.237Z,13.60
2023-05-18T19:17:52.193Z,13.52
2023-05-18T19:20:40.069Z,13.46
2023-05-18T19:23:28.447Z,13.41
2023-05-18T19:26:16.360Z,13.35
2023-05-18T19:29:04.395Z,13.31
2023-05-18T19:31:56.541Z,13.25
2023-05-18T19:34:44.467Z,13.16
2023-05-18T19:37:32.356Z,13.08
2023-05-18T19:40:22.536Z,12.99
2023-05-18T19:43:10.861Z,12.92
2023-05-18T19:45:58.916Z,12.85
2023-05-18T19:48:47.179Z,12.78
2023-05-18T19:51:35.103Z,12.70
2023-05-18T19:54:22.923Z,12.62
2023-05-18T19:57:10.826Z,12.56
2023-05-18T19:59:58.746Z,12.47
2023-05-18T20:02:46.591Z,12.44
2023-05-18T20:05:34.672Z,12.38
2023-05-18T20:08:22.395Z,12.33
2023-05-18T20:11:10.323Z,12.29
2023-05-18T20:13:58.126Z,12.25
2023-05-18T20:16:45.998Z,12.18
2023-05-18T20:19:33.859Z,12.14
2023-05-18T20:22:21.739Z,12.06
2023-05-18T20:25:09.607Z,12.02
2023-05-18T20:28:00.658Z,11.97
2023-05-18T20:30:49.081Z,11.92
2023-05-18T20:33:36.986Z,11.86
2023-05-18T20:36:26.035Z,11.80
2023-05-18T20:39:14.492Z,11.75
2023-05-18T20:42:04.794Z,11.71
2023-05-18T20:44:52.775Z,11.66
2023-05-18T20:47:41.933Z,11.61
2023-05-18T20:50:30.161Z,11.57
2023-05-18T20:53:18.675Z,11.53
2023-05-18T20:56:06.826Z,11.48
2023-05-18T20:58:54.941Z,11.43
2023-05-18T21:01:44.011Z,11.40
2023-05-18T21:04:31.841Z,11.37
2023-05-18T21:07:21.238Z,11.33
2023-05-18T21:10:11.198Z,11.27
2023-05-18T21:12:59.223Z,11.22
2023-05-18T21:15:47.103Z,11.17
2023-05-18T21:18:35.832Z,11.15
2023-05-18T21:21:23.966Z,11.11
2023-05-18T21:24:11.725Z,11.07
2023-05-18T21:27:00.362Z,11.02
2023-05-18T21:29:48.122Z,10.97
2023-05-18T21:32:36.111Z,10.93
2023-05-18T21:35:24.150Z,10.90
2023-05-18T21:38:11.924Z,10.87
2023-05-18T21:40:59.740Z,10.86
2023-05-18T21:43:47.550Z,10.84
2023-05-18T21:46:37.009Z,10.81
2023-05-18T21:49:25.330Z,10.76
2023-05-18T21:52:15.283Z,10.72
2023-05-18T21:55:03.533Z,10.70
2023-05-18T21:57:51.330Z,10.66
2023-05-18T22:00:39.644Z,10.64
2023-05-18T22:03:27.428Z,10.61
2023-05-18T22:06:15.910Z,10.59
2023-05-18T22:09:04.062Z,10.54
2023-05-18T22:11:51.860Z,10.49
2023-05-18T22:14:39.699Z,10.45
2023-05-18T22:17:27.522Z,10.41
2023-05-18T22:20:16.061Z,10.38
2023-05-18T22:23:03.988Z,10.34
2023-05-18T22:25:52.073Z,10.32
2023-05-18T22:28:39.885Z,10.28
2023-05-18T22:31:27.877Z,10.26
2023-05-18T22:34:16.287Z,10.23
2023-05-18T22:37:04.462Z,10.22
2023-05-18T22:39:52.333Z,10.19
2023-05-18T22:42:40.790Z,10.16
2023-05-18T22:45:28.667Z,10.14
2023-05-18T22:48:16.639Z,10.07
2023-05-18T22:51:06.029Z,10.03
2023-05-18T22:53:56.250Z,10.00
2023-05-18T22:56:44.021Z,9.97
2023-05-18T22:59:31.790Z,9.89
2023-05-18T23:02:19.653Z,9.85
2023-05-18T23:05:09.022Z,9.80
2023-05-18T23:07:58.185Z,9.76
2023-05-18T23:10:46.067Z,9.75
2023-05-18T23:13:37.707Z,9.74
2023-05-18T23:16:26.633Z,9.71
2023-05-18T23:19:18.300Z,9.67
2023-05-18T23:22:06.116Z,9.64
2023-05-18T23:24:54.193Z,9.62
2023-05-18T23:27:42.244Z,9.61
2023-05-18T23:30:32.143Z,9.56
2023-05-18T23:33:20.646Z,9.54
2023-05-18T23:36:10.536Z,9.51
2023-05-18T23:38:59.950Z,9.50
2023-05-18T23:41:51.962Z,9.46
2023-05-18T23:44:39.981Z,9.36
2023-05-18T23:47:28.120Z,9.31
2023-05-18T23:50:16.890Z,9.31
2023-05-18T23:53:06.856Z,9.31
2023-05-18T23:55:57.900Z,9.27
2023-05-18T23:58:47.356Z,9.22
